Time;durP1;ratioP1;P1;durP2;ratioP2;P2;SDS_P1;SDS_P2;PMS_P1;PMS_P2;Temp;Humidity;BMP_temperature;BMP_pressure;BME280_temperature;BME280_humidity;BME280_pressure;Samples;Min_cycle;Max_cycle;Signal;HPM_P1;HPM_P2
2024/04/11 00:02:04;;;;;;;4.82;1.08;;;11.10;99.90;;;;;;5404414;26;20711;-83
2024/04/11 00:04:31;;;;;;;6.07;1.40;;;11.10;99.90;;;;;;5400813;26;20043;-83
2024/04/11 00:06:58;;;;;;;9.05;1.05;;;11.00;99.90;;;;;;5400772;26;20048;-82
2024/04/11 00:09:25;;;;;;;6.88;1.13;;;11.10;99.90;;;;;;5402752;26;20460;-83
2024/04/11 00:11:52;;;;;;;8.55;1.52;;;11.10;99.90;;;;;;5402227;26;20382;-83
2024/04/11 00:14:19;;;;;;;3.90;1.13;;;11.10;99.90;;;;;;5412396;26;20000;-83
2024/04/11 00:16:45;;;;;;;4.30;2.00;;;11.10;99.90;;;;;;5399734;26;20014;-83
2024/04/11 00:19:12;;;;;;;5.10;1.10;;;11.10;99.90;;;;;;5403482;26;20430;-83
2024/04/11 00:21:39;;;;;;;5.93;1.38;;;11.10;99.90;;;;;;5400626;26;20382;-84
2024/04/11 00:24:06;;;;;;;5.75;1.73;;;11.10;99.90;;;;;;5405376;26;20374;-84
2024/04/11 00:26:33;;;;;;;3.65;1.23;;;11.20;99.90;;;;;;5403135;26;20364;-84
2024/04/11 00:29:00;;;;;;;6.30;1.05;;;11.30;99.90;;;;;;5400375;26;20028;-83
2024/04/11 00:31:28;;;;;;;5.18;1.23;;;11.10;99.90;;;;;;5399870;26;20047;-82
2024/04/11 00:33:55;;;;;;;7.38;1.75;;;11.20;99.90;;;;;;5399744;26;20004;-83
2024/04/11 00:36:22;;;;;;;6.35;1.63;;;11.20;99.90;;;;;;5406548;26;19996;-83
2024/04/11 00:38:50;;;;;;;6.15;1.40;;;11.20;99.90;;;;;;5402240;26;20011;-83
2024/04/11 00:41:19;;;;;;;7.38;2.20;;;11.20;99.90;;;;;;5403584;26;20046;-82
2024/04/11 00:43:47;;;;;;;4.30;1.27;;;11.20;99.90;;;;;;5403117;26;20011;-83
2024/04/11 00:46:14;;;;;;;10.10;1.55;;;11.20;99.90;;;;;;5398973;26;20007;-83
2024/04/11 00:48:42;;;;;;;7.03;1.42;;;11.20;99.90;;;;;;5406175;26;20039;-82
2024/04/11 00:51:09;;;;;;;3.70;1.52;;;11.30;99.90;;;;;;5401275;26;20036;-84
2024/04/11 00:53:36;;;;;;;5.00;1.42;;;11.20;99.90;;;;;;5400415;26;20043;-83
2024/04/11 00:56:04;;;;;;;5.57;1.48;;;11.20;99.90;;;;;;5404684;26;20027;-83
2024/04/11 00:58:31;;;;;;;5.65;1.52;;;11.20;99.90;;;;;;5408217;26;20035;-83
2024/04/11 01:00:58;;;;;;;4.97;1.77;;;11.20;99.90;;;;;;5405242;26;20515;-84
2024/04/11 01:03:25;;;;;;;7.38;1.23;;;11.30;99.90;;;;;;5403497;26;20009;-83
2024/04/11 01:05:52;;;;;;;5.93;1.10;;;11.20;99.90;;;;;;5396022;26;20007;-84
2024/04/11 01:08:19;;;;;;;4.78;0.98;;;11.50;99.90;;;;;;5405180;26;21017;-83
2024/04/11 01:10:45;;;;;;;3.70;1.02;;;11.30;99.90;;;;;;5406553;26;20447;-83
2024/04/11 01:13:12;;;;;;;7.05;1.13;;;11.40;99.90;;;;;;5408915;26;20613;-84
2024/04/11 01:15:39;;;;;;;7.13;1.52;;;11.30;99.90;;;;;;5408126;26;20017;-83
2024/04/11 01:18:06;;;;;;;4.63;1.23;;;11.80;99.90;;;;;;5401598;26;20000;-83
2024/04/11 01:20:33;;;;;;;8.23;1.10;;;11.40;99.90;;;;;;5403388;26;20043;-83
2024/04/11 01:23:01;;;;;;;3.65;1.00;;;11.50;99.90;;;;;;5407739;26;20034;-83
2024/04/11 01:25:30;;;;;;;5.45;0.88;;;11.40;99.90;;;;;;5404898;26;20045;-83
2024/04/11 01:27:58;;;;;;;2.85;0.70;;;11.40;99.90;;;;;;5410217;26;20032;-83
2024/04/11 01:30:26;;;;;;;2.95;0.80;;;11.50;99.90;;;;;;5402502;26;20035;-83
2024/04/11 01:33:00;;;;;;;6.57;1.30;;;11.50;99.90;;;;;;5395979;26;20008;-83
2024/04/11 01:35:30;;;;;;;6.57;1.10;;;11.60;99.90;;;;;;5400040;26;20016;-83
2024/04/11 01:37:58;;;;;;;8.38;1.60;;;11.60;99.90;;;;;;5403280;26;20027;-84
2024/04/11 01:40:29;;;;;;;7.00;1.02;;;11.60;99.90;;;;;;5404731;26;20782;-83
2024/04/11 01:42:57;;;;;;;5.85;1.10;;;11.60;99.90;;;;;;5398029;26;19995;-84
2024/04/11 01:45:26;;;;;;;4.10;0.80;;;11.70;99.90;;;;;;5378161;26;20018;-84
2024/04/11 01:47:53;;;;;;;4.80;0.85;;;11.60;99.90;;;;;;5400871;26;20007;-84
2024/04/11 01:50:22;;;;;;;5.93;1.13;;;11.70;99.90;;;;;;5406759;26;20014;-83
2024/04/11 01:52:49;;;;;;;5.85;1.05;;;11.70;99.90;;;;;;5403819;26;20377;-84
2024/04/11 01:55:16;;;;;;;5.47;1.25;;;11.70;99.90;;;;;;5409959;26;20501;-84
2024/04/11 01:57:43;;;;;;;4.05;0.90;;;11.80;99.90;;;;;;5406503;26;19999;-83
2024/04/11 02:00:12;;;;;;;11.95;0.80;;;11.70;99.90;;;;;;5399253;26;20044;-84
2024/04/11 02:02:54;;;;;;;9.30;1.40;;;11.80;99.90;;;;;;5372699;26;20043;-84
2024/04/11 02:05:35;;;;;;;3.90;0.68;;;11.70;99.90;;;;;;5400342;26;20011;-84
2024/04/11 02:08:08;;;;;;;6.47;1.00;;;11.90;99.90;;;;;;5349981;26;19999;-83
2024/04/11 02:10:49;;;;;;;5.35;0.75;;;11.80;99.90;;;;;;5372343;26;20000;-84
2024/04/11 02:13:16;;;;;;;6.40;1.13;;;12.30;99.90;;;;;;5404637;26;20008;-84
2024/04/11 02:15:43;;;;;;;4.85;1.00;;;12.70;99.90;;;;;;5402220;26;20003;-84
2024/04/11 02:18:10;;;;;;;7.63;0.90;;;11.80;99.90;;;;;;5407257;26;20035;-83
2024/04/11 02:20:38;;;;;;;6.43;0.90;;;11.90;99.90;;;;;;5366029;26;20357;-84
2024/04/11 02:23:10;;;;;;;7.28;1.10;;;12.20;99.90;;;;;;5380758;26;20493;-83
2024/04/11 02:25:42;;;;;;;6.63;1.67;;;12.00;99.90;;;;;;5374751;26;21061;-84
2024/04/11 02:28:09;;;;;;;6.22;1.15;;;12.10;99.90;;;;;;5399915;26;20028;-84
2024/04/11 02:30:36;;;;;;;11.30;1.40;;;12.00;99.90;;;;;;5372257;26;20044;-84
2024/04/11 02:33:04;;;;;;;4.38;0.77;;;11.90;99.90;;;;;;5403714;26;20000;-84
2024/04/11 02:35:32;;;;;;;7.75;1.13;;;12.00;99.90;;;;;;5399215;26;20010;-84
2024/04/11 02:38:00;;;;;;;6.85;1.02;;;12.30;99.90;;;;;;5402687;26;20027;-84
2024/04/11 02:40:27;;;;;;;7.25;0.70;;;11.90;99.90;;;;;;5372722;26;20029;-84
2024/04/11 02:42:55;;;;;;;5.70;1.17;;;11.90;99.90;;;;;;5405093;26;20339;-84
2024/04/11 02:45:21;;;;;;;5.20;0.70;;;12.30;99.90;;;;;;5401447;26;20490;-83
2024/04/11 02:47:48;;;;;;;4.13;1.10;;;12.00;99.90;;;;;;5406372;26;20107;-82
2024/04/11 02:50:16;;;;;;;6.40;0.73;;;11.90;99.90;;;;;;5402530;26;20035;-83
2024/04/11 02:52:44;;;;;;;6.47;1.20;;;11.90;99.90;;;;;;5402889;26;20009;-83
2024/04/11 02:55:15;;;;;;;6.97;1.40;;;11.90;99.90;;;;;;5401537;26;20000;-83
2024/04/11 02:57:42;;;;;;;6.00;1.35;;;11.90;99.90;;;;;;5436731;26;20776;-83
2024/04/11 03:00:11;;;;;;;3.50;0.80;;;12.00;99.90;;;;;;5405831;26;20040;-83
2024/04/11 03:02:37;;;;;;;5.88;1.20;;;11.90;99.90;;;;;;5399175;26;20003;-83
2024/04/11 03:05:05;;;;;;;4.88;1.08;;;11.90;99.90;;;;;;5403351;26;20051;-84
2024/04/11 03:07:32;;;;;;;5.75;1.40;;;12.00;99.90;;;;;;5409409;26;20014;-83
2024/04/11 03:10:00;;;;;;;5.50;0.85;;;11.90;99.90;;;;;;5406798;26;19995;-83
2024/04/11 03:12:26;;;;;;;4.43;0.80;;;12.00;99.90;;;;;;5402095;26;20000;-83
2024/04/11 03:14:53;;;;;;;6.78;1.25;;;11.90;99.90;;;;;;5396312;26;20016;-83
2024/04/11 03:17:20;;;;;;;7.65;0.75;;;11.90;99.90;;;;;;5406443;26;20495;-83
2024/04/11 03:19:48;;;;;;;6.65;1.00;;;11.90;99.90;;;;;;5401277;26;20458;-84
2024/04/11 03:22:15;;;;;;;2.72;1.00;;;12.10;99.90;;;;;;5433263;26;19999;-83
2024/04/11 03:24:44;;;;;;;4.53;0.90;;;12.50;99.90;;;;;;5400856;26;21049;-82
2024/04/11 03:27:11;;;;;;;5.68;1.10;;;12.00;99.90;;;;;;5399965;26;20111;-84
2024/04/11 03:29:39;;;;;;;7.63;1.27;;;12.00;99.90;;;;;;5402880;26;20034;-83
2024/04/11 03:32:07;;;;;;;5.80;0.93;;;12.00;99.90;;;;;;5399478;26;20018;-84
2024/04/11 03:34:33;;;;;;;7.90;1.13;;;12.00;99.90;;;;;;5401854;26;20359;-83
2024/04/11 03:37:00;;;;;;;4.45;1.00;;;12.00;99.90;;;;;;5399595;26;20368;-83
2024/04/11 03:39:27;;;;;;;8.40;0.90;;;12.00;99.90;;;;;;5370874;26;20031;-83
2024/04/11 03:41:54;;;;;;;8.77;1.77;;;12.00;99.90;;;;;;5433728;26;20486;-84
2024/04/11 03:44:21;;;;;;;7.20;1.20;;;12.00;99.90;;;;;;5402100;26;20027;-83
2024/04/11 03:46:48;;;;;;;6.32;1.02;;;12.00;99.90;;;;;;5404825;26;20012;-84
2024/04/11 03:49:14;;;;;;;6.25;1.08;;;12.10;99.90;;;;;;5398998;26;19996;-83
2024/04/11 03:51:44;;;;;;;8.95;1.48;;;12.10;99.90;;;;;;5398625;26;20465;-83
2024/04/11 03:54:12;;;;;;;27.10;2.30;;;12.10;99.90;;;;;;5371865;26;20102;-83
2024/04/11 03:56:39;;;;;;;9.45;1.23;;;12.20;99.90;;;;;;5402504;26;20348;-83
2024/04/11 03:59:08;;;;;;;6.63;1.33;;;12.20;99.90;;;;;;5401740;26;20010;-84
2024/04/11 04:01:36;;;;;;;7.18;1.27;;;12.20;99.90;;;;;;5374076;26;20008;-83
2024/04/11 04:04:03;;;;;;;5.00;1.30;;;12.30;99.90;;;;;;5400474;26;20378;-84
2024/04/11 04:06:31;;;;;;;3.50;0.98;;;12.20;99.90;;;;;;5396330;26;20353;-84
2024/04/11 04:08:57;;;;;;;9.52;1.58;;;12.20;99.90;;;;;;5396536;26;20488;-83
2024/04/11 04:11:25;;;;;;;7.35;1.48;;;12.20;99.90;;;;;;5365789;26;20361;-83
2024/04/11 04:13:52;;;;;;;9.38;1.42;;;12.20;99.90;;;;;;5395293;26;20007;-83
2024/04/11 04:16:19;;;;;;;4.65;1.38;;;12.20;99.90;;;;;;5409113;26;20022;-83
2024/04/11 04:18:50;;;;;;;6.82;1.90;;;12.50;99.90;;;;;;5396665;26;20008;-84
2024/04/11 04:21:20;;;;;;;5.72;1.30;;;12.10;99.90;;;;;;5402629;26;20379;-84
2024/04/11 04:23:55;;;;;;;5.75;0.88;;;12.10;99.90;;;;;;5401814;26;20035;-83
2024/04/11 04:26:29;;;;;;;7.85;1.17;;;12.10;99.90;;;;;;5405135;26;20502;-84
2024/04/11 04:28:57;;;;;;;5.43;1.70;;;12.10;99.90;;;;;;5404695;26;20010;-84
2024/04/11 04:31:26;;;;;;;7.10;1.23;;;12.20;99.90;;;;;;5398710;26;20016;-83
2024/04/11 04:33:57;;;;;;;5.75;1.13;;;12.00;99.90;;;;;;5401165;26;20015;-84
2024/04/11 04:36:33;;;;;;;9.13;1.35;;;11.90;99.90;;;;;;5392437;26;20008;-83
2024/04/11 04:39:04;;;;;;;3.60;1.05;;;11.90;99.90;;;;;;5403196;26;20004;-83
2024/04/11 04:41:35;;;;;;;6.85;1.58;;;11.90;99.90;;;;;;5395117;26;20018;-84
2024/04/11 04:44:12;;;;;;;6.15;1.17;;;11.90;99.90;;;;;;5392749;26;20004;-83
2024/04/11 04:46:39;;;;;;;11.30;1.50;;;11.90;99.90;;;;;;5391541;26;20008;-83
2024/04/11 04:49:09;;;;;;;7.20;0.85;;;11.90;99.90;;;;;;5414509;26;20025;-83
2024/04/11 04:51:36;;;;;;;9.30;1.67;;;11.80;99.90;;;;;;5396433;26;20005;-84
2024/04/11 04:54:04;;;;;;;8.68;1.50;;;11.80;99.90;;;;;;5400656;26;20004;-84
2024/04/11 05:01:43;;;;;;;7.00;1.52;;;11.70;99.90;;;;;;5337501;21;20009;-84
2024/04/11 05:07:52;;;;;;;6.45;1.60;;;11.70;99.90;;;;;;5337234;26;20007;-84
2024/04/11 05:10:20;;;;;;;6.95;1.48;;;12.50;99.90;;;;;;5306028;26;20012;-84
2024/04/11 05:12:49;;;;;;;8.32;1.70;;;11.50;99.90;;;;;;5336338;26;20056;-84
2024/04/11 05:15:17;;;;;;;8.52;1.30;;;11.60;99.90;;;;;;5337783;26;20045;-84
2024/04/11 05:17:45;;;;;;;8.10;1.80;;;11.90;99.90;;;;;;5297214;26;20346;-84
2024/04/11 05:20:21;;;;;;;8.30;1.85;;;11.60;99.90;;;;;;5339801;26;20486;-83
2024/04/11 05:22:48;;;;;;;7.22;1.38;;;11.40;99.90;;;;;;5338927;26;20029;-83
2024/04/11 05:25:17;;;;;;;10.90;1.40;;;11.40;99.90;;;;;;5339547;26;20040;-83
2024/04/11 05:27:44;;;;;;;6.57;1.52;;;11.30;99.90;;;;;;5339050;26;20044;-83
2024/04/11 05:30:11;;;;;;;5.68;1.08;;;11.30;99.90;;;;;;5309531;26;20103;-83
2024/04/11 05:32:39;;;;;;;7.75;1.25;;;11.30;99.90;;;;;;5303774;26;20029;-82
2024/04/11 05:35:09;;;;;;;5.28;1.42;;;11.20;99.90;;;;;;5344260;26;20056;-82
2024/04/11 05:37:36;;;;;;;10.68;1.92;;;11.30;99.90;;;;;;5297003;26;20011;-83
2024/04/11 05:40:05;;;;;;;7.20;2.10;;;11.30;99.90;;;;;;5313918;26;20118;-83
2024/04/11 05:42:33;;;;;;;5.68;1.75;;;11.20;99.90;;;;;;5305424;26;20476;-83
2024/04/11 05:45:02;;;;;;;6.82;2.00;;;11.20;99.90;;;;;;5341462;26;20036;-83
2024/04/11 05:47:30;;;;;;;6.53;1.80;;;11.20;99.90;;;;;;5342135;26;20032;-83
2024/04/11 05:49:57;;;;;;;4.30;1.88;;;11.20;99.90;;;;;;5306659;26;20015;-82
2024/04/11 05:52:24;;;;;;;7.45;2.05;;;11.20;99.90;;;;;;5306404;26;20465;-82
2024/04/11 05:55:05;;;;;;;8.38;1.95;;;11.80;99.90;;;;;;5334710;26;20391;-84
2024/04/11 05:57:38;;;;;;;7.32;2.03;;;11.30;99.90;;;;;;5286216;26;20001;-83
2024/04/11 06:00:29;;;;;;;9.45;2.22;;;11.20;99.90;;;;;;5175846;27;20008;-83
2024/04/11 06:02:56;;;;;;;7.43;1.65;;;11.20;99.90;;;;;;5281855;26;20040;-84
2024/04/11 06:05:23;;;;;;;4.10;1.85;;;11.30;99.90;;;;;;5278856;26;20016;-84
2024/04/11 06:07:50;;;;;;;34.90;3.83;;;11.30;99.90;;;;;;5317689;26;20011;-84
2024/04/11 06:10:20;;;;;;;9.02;2.30;;;11.30;99.90;;;;;;5338832;26;20001;-84
2024/04/11 06:12:47;;;;;;;7.57;1.75;;;11.50;99.90;;;;;;5302705;26;20015;-84
2024/04/11 06:15:14;;;;;;;9.02;2.10;;;11.90;99.90;;;;;;5312870;26;20387;-84
2024/04/11 06:17:41;;;;;;;10.38;1.88;;;11.30;99.90;;;;;;5308094;26;20015;-84
2024/04/11 06:20:15;;;;;;;7.90;2.22;;;11.50;99.90;;;;;;5342288;26;20025;-84
2024/04/11 06:22:47;;;;;;;6.20;1.98;;;11.30;99.90;;;;;;5331470;26;20029;-84
2024/04/11 06:25:15;;;;;;;5.63;2.03;;;11.30;99.90;;;;;;5314212;26;20033;-85
2024/04/11 06:27:42;;;;;;;6.40;1.52;;;11.30;99.90;;;;;;5343084;26;20037;-83
2024/04/11 06:30:14;;;;;;;8.65;2.50;;;11.30;99.90;;;;;;5304353;26;20728;-82
2024/04/11 06:32:42;;;;;;;10.00;1.90;;;11.30;99.90;;;;;;5343276;26;20029;-84
2024/04/11 06:35:09;;;;;;;9.00;2.08;;;11.30;99.90;;;;;;5339710;26;20049;-83
2024/04/11 06:37:44;;;;;;;7.68;1.95;;;11.30;99.90;;;;;;5342300;26;20029;-83
2024/04/11 06:40:13;;;;;;;8.27;2.47;;;11.40;99.90;;;;;;5344313;26;20036;-84
2024/04/11 06:42:47;;;;;;;6.82;2.30;;;11.30;99.90;;;;;;5297568;26;20044;-83
2024/04/11 06:45:20;;;;;;;10.07;2.05;;;11.30;99.90;;;;;;5328658;26;20005;-85
2024/04/11 06:47:47;;;;;;;9.70;1.85;;;11.40;99.90;;;;;;5330929;26;20005;-83
2024/04/11 06:50:14;;;;;;;7.43;2.30;;;11.40;99.90;;;;;;5315509;26;20009;-85
2024/04/11 06:52:44;;;;;;;7.70;1.92;;;11.40;99.90;;;;;;5343471;26;20025;-83
2024/04/11 06:55:14;;;;;;;9.23;2.17;;;11.40;99.90;;;;;;5340635;26;20041;-84
2024/04/11 06:57:43;;;;;;;8.20;2.33;;;11.40;99.90;;;;;;5338252;26;20037;-84
2024/04/11 07:00:35;;;;;;;9.65;2.30;;;11.50;99.90;;;;;;5343754;26;20033;-85
2024/04/11 07:03:25;;;;;;;10.80;2.28;;;11.50;99.90;;;;;;5338386;26;20110;-84
2024/04/11 07:08:45;;;;;;;6.97;2.00;;;11.60;99.90;;;;;;5338976;26;20048;-83
2024/04/11 07:13:55;;;;;;;6.35;1.88;;;11.70;99.90;;;;;;5334354;26;20041;-83
2024/04/11 07:16:29;;;;;;;6.70;2.00;;;11.70;99.90;;;;;;5297949;26;20040;-84
2024/04/11 07:18:56;;;;;;;7.28;2.28;;;11.70;99.90;;;;;;5309628;26;20001;-84
2024/04/11 07:21:30;;;;;;;8.10;1.98;;;11.70;99.90;;;;;;5336161;26;20413;-83
2024/04/11 07:24:00;;;;;;;9.57;1.95;;;11.70;99.90;;;;;;5298808;26;20019;-83
2024/04/11 07:26:31;;;;;;;9.45;2.00;;;11.60;99.90;;;;;;5336689;26;20025;-84
2024/04/11 07:29:00;;;;;;;9.40;2.10;;;11.90;99.90;;;;;;5308720;26;20016;-84
2024/04/11 07:31:36;;;;;;;6.38;1.83;;;11.70;99.90;;;;;;5304097;26;20029;-84
2024/04/11 07:34:03;;;;;;;5.60;1.52;;;11.70;99.90;;;;;;5338702;26;20383;-83
2024/04/11 07:36:41;;;;;;;7.13;2.30;;;11.60;99.90;;;;;;5338448;26;20036;-84
2024/04/11 07:39:09;;;;;;;7.50;2.47;;;11.60;99.90;;;;;;5308848;26;19997;-83
2024/04/11 07:41:45;;;;;;;7.90;1.80;;;11.60;99.90;;;;;;5298277;26;20033;-83
2024/04/11 07:44:22;;;;;;;8.18;2.30;;;11.80;99.90;;;;;;5340231;26;20045;-84
2024/04/11 07:46:49;;;;;;;9.02;2.30;;;11.60;99.90;;;;;;5336447;26;20029;-84
2024/04/11 07:49:16;;;;;;;10.10;1.92;;;11.80;99.90;;;;;;5296138;26;20041;-84
2024/04/11 07:51:43;;;;;;;6.05;2.13;;;11.90;99.90;;;;;;5339022;26;20853;-84
2024/04/11 07:54:13;;;;;;;5.78;2.20;;;11.70;99.90;;;;;;5301963;26;20399;-84
2024/04/11 07:56:43;;;;;;;5.63;2.05;;;11.80;99.90;;;;;;5320837;26;20005;-84
2024/04/11 07:59:13;;;;;;;5.00;2.10;;;11.80;99.90;;;;;;5299349;26;20438;-86
2024/04/11 08:01:41;;;;;;;8.50;2.83;;;12.00;99.90;;;;;;5298479;26;21165;-83
2024/04/11 08:04:18;;;;;;;7.05;2.55;;;11.90;99.90;;;;;;5312224;26;20034;-85
2024/04/11 08:14:07;;;;;;;6.88;2.63;;;12.10;99.90;;;;;;5290968;26;20336;-84
2024/04/11 08:16:58;;;;;;;8.73;3.72;;;12.40;99.90;;;;;;5341642;26;20479;-84
2024/04/11 08:23:26;;;;;;;8.75;3.33;;;12.40;99.90;;;;;;5186790;27;20047;-84
2024/04/11 08:26:07;;;;;;;10.02;3.33;;;12.60;99.90;;;;;;5181243;27;20032;-83
2024/04/11 08:31:56;;;;;;;8.20;4.00;;;12.60;99.90;;;;;;5183922;27;20113;-85
2024/04/11 08:41:53;;;;;;;8.98;4.28;;;12.60;99.90;;;;;;5240702;26;20552;-84
2024/04/11 08:45:12;;;;;;;8.57;4.35;;;12.80;99.90;;;;;;5309706;26;20041;-84
2024/04/11 08:47:46;;;;;;;13.65;4.30;;;12.70;99.90;;;;;;5338945;26;20030;-84
2024/04/11 08:50:40;;;;;;;8.40;4.20;;;12.70;99.90;;;;;;5296036;26;20504;-84
2024/04/11 09:15:19;;;;;;;9.18;5.25;;;13.00;99.90;;;;;;5281750;26;20616;-84
2024/04/11 09:18:22;;;;;;;8.48;5.43;;;13.00;99.90;;;;;;5341312;26;20037;-83
2024/04/11 09:21:36;;;;;;;15.10;5.78;;;12.80;99.90;;;;;;5338224;26;20072;-85
2024/04/11 09:24:46;;;;;;;8.05;5.18;;;13.00;99.90;;;;;;5319888;26;20037;-84
2024/04/11 09:27:16;;;;;;;8.35;5.65;;;12.90;99.90;;;;;;5315506;26;20009;-84
2024/04/11 09:30:29;;;;;;;10.55;6.00;;;13.40;99.90;;;;;;5310424;26;20040;-84
2024/04/11 09:41:11;;;;;;;8.45;5.88;;;13.20;99.90;;;;;;5343039;26;21133;-84
2024/04/11 09:51:52;;;;;;;9.45;5.38;;;13.20;99.90;;;;;;5289869;26;20003;-84
2024/04/11 09:54:19;;;;;;;8.27;5.90;;;13.20;99.90;;;;;;5296560;26;20015;-84
2024/04/11 09:56:56;;;;;;;9.18;5.70;;;13.20;99.90;;;;;;5336484;26;20008;-85
2024/04/11 09:59:24;;;;;;;9.27;6.38;;;13.40;99.90;;;;;;5327580;26;20009;-85
2024/04/11 10:09:17;;;;;;;10.85;6.82;;;13.20;99.90;;;;;;5235008;26;20067;-84
2024/04/11 10:15:51;;;;;;;11.93;6.22;;;13.30;99.90;;;;;;5146532;27;20015;-83
2024/04/11 10:19:26;;;;;;;13.38;7.13;;;13.30;99.90;;;;;;5195387;27;20047;-83
2024/04/11 10:22:26;;;;;;;7.78;6.07;;;13.30;99.90;;;;;;5159819;27;20019;-83
2024/04/11 10:25:21;;;;;;;9.07;7.13;;;13.40;99.90;;;;;;5204225;26;20038;-84
2024/04/11 10:28:14;;;;;;;8.88;7.10;;;13.70;99.90;;;;;;5338261;26;20609;-83
2024/04/11 10:30:52;;;;;;;8.35;7.55;;;13.50;99.90;;;;;;5279567;26;20019;-84
2024/04/11 10:33:44;;;;;;;10.85;7.88;;;13.40;99.90;;;;;;5248898;26;20036;-83
2024/04/11 10:36:36;;;;;;;10.43;7.22;;;13.40;99.90;;;;;;5338549;26;20029;-84
2024/04/11 10:39:09;;;;;;;8.30;7.35;;;13.60;99.90;;;;;;5305996;26;20009;-83
2024/04/11 10:41:37;;;;;;;9.40;7.28;;;13.50;99.90;;;;;;5322365;26;20001;-83
2024/04/11 10:44:08;;;;;;;8.43;7.32;;;14.10;99.90;;;;;;5339413;26;20033;-83
2024/04/11 10:46:38;;;;;;;7.90;7.20;;;13.50;99.90;;;;;;5307812;26;20354;-83
2024/04/11 10:49:19;;;;;;;10.55;8.02;;;13.80;99.90;;;;;;5341397;26;20045;-85
2024/04/11 10:51:47;;;;;;;8.85;7.95;;;13.70;99.90;;;;;;5297988;26;20057;-83
2024/04/11 10:54:17;;;;;;;7.85;7.15;;;13.70;99.90;;;;;;5342251;26;20617;-83
2024/04/11 10:56:46;;;;;;;9.10;8.02;;;13.70;99.90;;;;;;5340449;26;20030;-83
2024/04/11 10:59:26;;;;;;;9.45;6.95;;;13.70;99.90;;;;;;5321783;26;20001;-84
2024/04/11 11:02:02;;;;;;;9.57;7.78;;;13.60;99.90;;;;;;5340871;26;20494;-83
2024/04/11 11:04:32;;;;;;;8.80;7.90;;;14.10;99.90;;;;;;5339137;26;20124;-84
2024/04/11 11:07:09;;;;;;;8.77;7.70;;;13.80;99.90;;;;;;5312711;26;20058;-83
2024/04/11 11:09:42;;;;;;;8.95;7.63;;;13.70;99.90;;;;;;5342687;26;20025;-83
2024/04/11 11:12:12;;;;;;;9.40;7.55;;;13.80;99.90;;;;;;5310357;26;20680;-84
2024/04/11 11:14:40;;;;;;;8.07;7.05;;;13.80;99.90;;;;;;5341718;26;20029;-83
2024/04/11 11:17:16;;;;;;;7.95;7.22;;;13.80;99.90;;;;;;5312169;26;20045;-83
2024/04/11 11:19:45;;;;;;;7.55;6.85;;;13.90;99.90;;;;;;5343611;26;20045;-84
2024/04/11 11:22:14;;;;;;;7.93;7.18;;;13.90;99.90;;;;;;5344899;26;20025;-84
2024/04/11 11:24:42;;;;;;;8.10;7.35;;;13.90;99.90;;;;;;5300552;26;20013;-84
2024/04/11 11:27:11;;;;;;;8.38;6.82;;;14.30;99.90;;;;;;5300364;26;20053;-83
2024/04/11 11:29:42;;;;;;;7.28;6.57;;;13.90;99.90;;;;;;5342887;26;20017;-84
2024/04/11 11:32:18;;;;;;;7.07;6.30;;;13.90;99.90;;;;;;5294992;26;20037;-83
2024/04/11 11:34:47;;;;;;;7.05;6.43;;;13.90;99.90;;;;;;5337201;26;20056;-83
2024/04/11 11:37:14;;;;;;;8.07;6.90;;;13.90;99.90;;;;;;5339389;26;20052;-83
2024/04/11 11:39:49;;;;;;;7.35;6.65;;;14.50;99.90;;;;;;5301379;26;20019;-84
2024/04/11 11:42:32;;;;;;;;;;;13.90;99.90;;;;;;5343195;26;20025;-84
2024/04/11 11:45:08;;;;;;;8.07;7.10;;;13.80;99.90;;;;;;5312849;26;19926;-83
2024/04/11 11:47:36;;;;;;;8.10;7.28;;;13.80;99.90;;;;;;5308876;26;20131;-83
2024/04/11 11:50:10;;;;;;;7.70;7.00;;;13.90;99.90;;;;;;5297000;26;20009;-84
2024/04/11 11:52:42;;;;;;;8.23;7.43;;;13.90;99.90;;;;;;5340660;26;20269;-83
2024/04/11 11:55:19;;;;;;;7.90;6.82;;;13.90;99.90;;;;;;5312437;26;20044;-83
2024/04/11 11:57:55;;;;;;;8.90;7.05;;;13.90;99.90;;;;;;5310880;26;20044;-83
2024/04/11 12:00:25;;;;;;;8.15;7.32;;;14.20;99.90;;;;;;5310349;26;20385;-83
2024/04/11 12:02:56;;;;;;;10.50;7.35;;;14.30;99.90;;;;;;5341699;26;20025;-85
2024/04/11 12:05:25;;;;;;;6.95;6.22;;;13.90;99.90;;;;;;5342509;26;20037;-83
2024/04/11 12:07:59;;;;;;;7.95;7.13;;;13.90;99.90;;;;;;5341315;26;20037;-83
2024/04/11 12:11:14;;;;;;;8.50;7.72;;;14.00;99.90;;;;;;5336743;26;20688;-84
2024/04/11 12:13:42;;;;;;;8.60;7.70;;;13.90;99.90;;;;;;5337377;26;20029;-83
2024/04/11 12:16:13;;;;;;;8.82;6.63;;;14.00;99.90;;;;;;5308215;26;20044;-83
2024/04/11 12:18:40;;;;;;;8.27;6.60;;;14.00;99.90;;;;;;5309535;26;20015;-83
2024/04/11 12:21:18;;;;;;;8.57;6.80;;;14.10;99.90;;;;;;5338565;26;20033;-83
2024/04/11 12:23:47;;;;;;;8.10;6.63;;;14.10;99.90;;;;;;5310026;26;20019;-83
2024/04/11 12:26:15;;;;;;;7.53;6.88;;;14.10;99.90;;;;;;5304178;26;21125;-82
2024/04/11 12:28:45;;;;;;;6.93;6.30;;;14.10;99.90;;;;;;5342165;26;20455;-83
2024/04/11 12:31:15;;;;;;;6.93;6.32;;;14.10;99.90;;;;;;5341492;26;20681;-83
2024/04/11 12:33:45;;;;;;;8.57;7.68;;;14.10;99.90;;;;;;5342814;26;20037;-82
2024/04/11 12:39:21;;;;;;;7.90;7.10;;;14.20;99.90;;;;;;5339742;26;20049;-82
2024/04/11 12:41:51;;;;;;;10.48;7.82;;;14.20;99.90;;;;;;5299788;26;20465;-83
2024/04/11 12:44:25;;;;;;;11.18;8.82;;;14.30;99.90;;;;;;5334127;26;20009;-82
2024/04/11 12:46:52;;;;;;;8.80;7.97;;;14.30;99.90;;;;;;5311936;26;20011;-83
2024/04/11 12:49:25;;;;;;;13.68;8.93;;;14.40;99.90;;;;;;5309263;26;20032;-83
2024/04/11 12:52:00;;;;;;;9.63;7.95;;;14.50;99.90;;;;;;5339257;26;20018;-85
2024/04/11 12:54:27;;;;;;;8.77;7.87;;;14.50;99.90;;;;;;5335006;26;20045;-85
2024/04/11 12:56:56;;;;;;;10.27;7.28;;;14.50;99.90;;;;;;5296004;26;20239;-83
2024/04/11 12:59:28;;;;;;;8.27;7.28;;;14.70;99.90;;;;;;5340733;26;20012;-84
2024/04/11 13:01:58;;;;;;;9.43;7.97;;;14.50;99.90;;;;;;5301549;26;20032;-84
2024/04/11 13:04:32;;;;;;;9.88;7.40;;;14.60;99.90;;;;;;5278125;26;20024;-84
2024/04/11 13:07:10;;;;;;;8.73;7.82;;;14.70;99.90;;;;;;5308348;26;20005;-85
2024/04/11 13:09:54;;;;;;;8.30;7.38;;;14.80;99.90;;;;;;5336595;26;20368;-84
2024/04/11 13:12:22;;;;;;;8.85;7.60;;;15.10;99.90;;;;;;5282723;26;20037;-84
2024/04/11 13:15:07;;;;;;;9.05;7.43;;;15.00;99.90;;;;;;5342217;26;20037;-83
2024/04/11 13:17:41;;;;;;;7.82;7.13;;;15.00;99.90;;;;;;5338124;26;20019;-84
2024/04/11 13:20:27;;;;;;;7.80;7.07;;;15.10;99.90;;;;;;5309417;26;20004;-83
2024/04/11 13:23:21;;;;;;;;;;;;;;;;;;;;;
2024/04/11 13:26:16;;;;;;;9.02;7.20;;;15.30;99.90;;;;;;5339469;26;20012;-84
2024/04/11 13:29:01;;;;;;;8.48;7.47;;;15.40;99.90;;;;;;5302116;26;20368;-84
2024/04/11 13:31:39;;;;;;;7.95;7.15;;;15.20;99.90;;;;;;5336006;26;20011;-83
2024/04/11 13:34:21;;;;;;;13.18;7.90;;;15.30;99.90;;;;;;5334930;26;20049;-84
2024/04/11 13:37:37;;;;;;;9.90;7.18;;;15.30;99.90;;;;;;5332267;26;20005;-83
2024/04/11 13:43:09;;;;;;;8.32;6.97;;;15.20;99.90;;;;;;5313192;26;20039;-84
2024/04/11 13:45:42;;;;;;;8.05;6.70;;;15.40;99.90;;;;;;5337980;26;20409;-83
2024/04/11 13:48:10;;;;;;;10.55;7.50;;;15.80;99.90;;;;;;5315244;26;20005;-83
2024/04/11 13:50:52;;;;;;;8.15;7.10;;;15.30;99.90;;;;;;5310170;26;20015;-83
2024/04/11 13:53:37;;;;;;;8.77;7.90;;;15.30;99.90;;;;;;5306933;26;20057;-83
2024/04/11 13:56:25;;;;;;;10.27;6.97;;;15.50;99.90;;;;;;5330037;26;20450;-83
2024/04/11 13:59:07;;;;;;;7.43;6.47;;;15.40;99.90;;;;;;5311424;26;20008;-83
2024/04/11 14:01:42;;;;;;;7.75;6.95;;;15.40;99.90;;;;;;5301365;26;20020;-83
2024/04/11 14:04:17;;;;;;;7.72;6.68;;;15.50;99.90;;;;;;5337401;26;20108;-84
2024/04/11 14:09:17;;;;;;;7.47;6.30;;;15.90;99.90;;;;;;5335326;26;20015;-83
2024/04/11 14:11:48;;;;;;;7.40;6.65;;;15.50;99.90;;;;;;5338952;26;20471;-83
2024/04/11 14:14:20;;;;;;;6.30;5.70;;;15.60;99.90;;;;;;5298018;26;20018;-84
2024/04/11 14:16:51;;;;;;;7.03;6.38;;;15.40;99.90;;;;;;5304225;26;20012;-84
2024/04/11 14:19:51;;;;;;;6.57;5.70;;;15.40;99.90;;;;;;5306776;26;20352;-84
2024/04/11 14:25:16;;;;;;;8.18;6.38;;;15.30;99.90;;;;;;5337010;26;20036;-83
2024/04/11 14:27:47;;;;;;;5.68;4.28;;;15.20;99.90;;;;;;5278469;26;20036;-83
2024/04/11 14:30:16;;;;;;;8.05;4.30;;;15.50;99.90;;;;;;5307520;26;20358;-83
2024/04/11 14:34:11;;;;;;;5.55;5.05;;;15.10;99.90;;;;;;5336309;26;20024;-84
2024/04/11 14:38:19;;;;;;;4.13;3.72;;;15.10;99.90;;;;;;5338764;26;20008;-84
2024/04/11 14:40:46;;;;;;;4.50;3.72;;;15.10;99.90;;;;;;5340724;26;20741;-84
2024/04/11 14:43:20;;;;;;;4.90;3.80;;;15.10;99.90;;;;;;5308656;26;20042;-84
2024/04/11 14:45:47;;;;;;;7.22;4.47;;;15.00;99.90;;;;;;5311712;26;20040;-84
2024/04/11 14:48:21;;;;;;;8.10;5.03;;;15.20;99.90;;;;;;5342450;26;20029;-84
2024/04/11 14:50:55;;;;;;;11.68;4.80;;;15.40;99.90;;;;;;5306833;26;20049;-84
2024/04/11 14:53:24;;;;;;;4.68;4.03;;;15.10;99.90;;;;;;5340424;26;20049;-84
2024/04/11 14:55:57;;;;;;;5.95;3.55;;;15.10;99.90;;;;;;5283171;26;20041;-83